createdAt,value
2022-09-20T00:35:34.270Z,9.68
2022-09-20T00:55:34.262Z,9.69
2022-09-20T01:15:34.258Z,9.38
2022-09-20T01:35:34.263Z,9.26
2022-09-20T01:55:34.267Z,9.3
2022-09-20T02:15:34.261Z,9.46
2022-09-20T02:35:34.301Z,9.61
2022-09-20T03:15:34.257Z,9.52
2022-09-20T03:35:34.285Z,9.34
2022-09-20T03:55:34.249Z,9.09
2022-09-20T04:15:34.277Z,8.88
2022-09-20T04:35:34.254Z,8.74
2022-09-20T04:55:34.244Z,8.77
2022-09-20T05:15:34.259Z,9.21
2022-09-20T05:35:34.241Z,9.64
2022-09-20T06:15:34.228Z,10.23
2022-09-20T06:35:34.251Z,10.45
2022-09-20T06:55:34.232Z,10.62
2022-09-20T07:15:34.237Z,10.76
2022-09-20T07:35:34.224Z,10.96
2022-09-20T08:15:34.224Z,11.52
2022-09-20T08:35:38.041Z,11.79
2022-09-20T08:55:37.113Z,12
2022-09-20T09:15:34.185Z,12.25
2022-09-20T09:55:34.203Z,13.55
2022-09-20T10:15:34.169Z,13.65
2022-09-20T10:55:34.172Z,14.13
2022-09-20T11:35:34.150Z,14.3
2022-09-20T12:15:34.160Z,14.49
2022-09-20T13:15:34.131Z,14.86
2022-09-20T13:35:34.112Z,14.84
2022-09-20T14:15:34.117Z,14.64
2022-09-20T16:15:34.076Z,14.3
2022-09-20T16:35:34.076Z,14.13
2022-09-20T16:55:34.065Z,13.91
2022-09-20T17:15:34.045Z,13.73
2022-09-20T17:35:34.039Z,13.39
2022-09-20T17:55:34.046Z,12.71
2022-09-20T18:15:34.047Z,11.98
2022-09-20T18:55:34.027Z,11.33
2022-09-20T19:15:34.041Z,10.94
2022-09-20T20:15:34.115Z,9.96
2022-09-20T20:35:34.014Z,9.74
2022-09-20T20:55:34.014Z,9.49
2022-09-20T21:15:34.033Z,9.32
2022-09-20T21:35:34.020Z,9.03
2022-09-20T21:55:34.015Z,8.77
2022-09-20T22:15:34.059Z,8.72
2022-09-20T22:35:34.034Z,8.43
2022-09-20T22:55:34.015Z,8.24
2022-09-20T23:15:34.005Z,8.13
2022-09-20T23:35:34.042Z,7.99
2022-09-20T23:55:34.042Z,7.82
